createdAt,value
2023-03-16T00:00:03.972Z,54.02
2023-03-16T00:02:31.377Z,54.36
2023-03-16T00:04:58.683Z,54.43
2023-03-16T00:07:25.999Z,54.30
2023-03-16T00:09:54.781Z,54.55
2023-03-16T00:12:22.808Z,54.86
2023-03-16T00:14:50.223Z,55.42
2023-03-16T00:17:21.365Z,55.90
2023-03-16T00:19:51.773Z,56.13
2023-03-16T00:22:19.075Z,56.87
2023-03-16T00:24:46.396Z,57.19
2023-03-16T00:27:17.461Z,57.95
2023-03-16T00:29:50.691Z,58.29
2023-03-16T00:32:19.976Z,58.98
2023-03-16T00:34:48.876Z,59.18
2023-03-16T00:37:16.929Z,59.63
2023-03-16T00:39:45.044Z,59.63
2023-03-16T00:42:14.518Z,60.56
2023-03-16T00:44:44.640Z,61.49
2023-03-16T00:47:14.488Z,62.33
2023-03-16T00:49:43.292Z,62.90
2023-03-16T00:52:14.861Z,63.24
2023-03-16T00:54:43.279Z,62.97
2023-03-16T00:57:12.265Z,62.99
2023-03-16T00:59:39.761Z,63.20
2023-03-16T01:02:07.540Z,63.28
2023-03-16T01:04:36.576Z,63.00
2023-03-16T01:07:04.568Z,63.77
2023-03-16T01:09:37.075Z,64.24
2023-03-16T01:12:06.308Z,64.46
2023-03-16T01:14:37.569Z,64.56
2023-03-16T01:17:06.358Z,64.72
2023-03-16T01:19:36.643Z,64.66
2023-03-16T01:22:05.400Z,64.58
2023-03-16T01:24:34.837Z,64.65
2023-03-16T01:27:02.868Z,64.75
2023-03-16T01:29:30.910Z,64.96
2023-03-16T01:31:59.804Z,64.73
2023-03-16T01:34:27.240Z,64.60
2023-03-16T01:36:55.236Z,64.85
2023-03-16T01:39:43.715Z,64.67
2023-03-16T01:42:12.059Z,64.51
2023-03-16T01:44:56.226Z,64.53
2023-03-16T01:47:28.666Z,64.77
2023-03-16T01:49:56.429Z,64.79
2023-03-16T01:52:29.279Z,64.72
2023-03-16T01:55:02.245Z,64.75
2023-03-16T01:57:37.152Z,65.10
2023-03-16T02:00:19.829Z,65.00
2023-03-16T02:03:05.291Z,64.92
2023-03-16T02:05:43.668Z,64.96
2023-03-16T02:08:14.603Z,64.77
2023-03-16T02:10:42.023Z,64.91
2023-03-16T02:13:09.556Z,64.75
2023-03-16T02:15:36.925Z,64.68
2023-03-16T02:18:05.148Z,64.70
2023-03-16T02:20:40.007Z,64.71
2023-03-16T02:23:18.554Z,64.77
2023-03-16T02:25:58.144Z,64.78
2023-03-16T02:28:57.886Z,64.94
2023-03-16T02:31:25.310Z,64.80
2023-03-16T02:33:52.747Z,64.77
2023-03-16T02:36:20.978Z,64.78
2023-03-16T02:38:48.747Z,65.16
2023-03-16T02:41:19.372Z,65.38
2023-03-16T02:44:01.674Z,65.52
2023-03-16T02:46:35.987Z,65.52
2023-03-16T02:49:11.691Z,65.62
2023-03-16T02:51:39.731Z,65.55
2023-03-16T02:54:10.217Z,66.02
2023-03-16T02:56:48.727Z,65.88
2023-03-16T02:59:20.696Z,66.17
2023-03-16T03:02:08.049Z,66.22
2023-03-16T03:04:37.676Z,66.21
2023-03-16T03:07:07.208Z,66.28
2023-03-16T03:09:58.448Z,66.38
2023-03-16T03:12:40.814Z,66.27
2023-03-16T03:15:10.344Z,66.25
2023-03-16T03:17:49.207Z,66.23
2023-03-16T03:20:17.873Z,66.45
2023-03-16T03:22:46.468Z,66.30
2023-03-16T03:25:14.846Z,65.94
2023-03-16T03:27:42.781Z,66.35
2023-03-16T03:30:15.863Z,66.26
2023-03-16T03:32:44.320Z,66.07
2023-03-16T03:35:12.833Z,66.22
2023-03-16T03:37:41.288Z,66.44
2023-03-16T03:40:14.341Z,66.52
2023-03-16T03:42:42.912Z,66.84
2023-03-16T03:45:14.144Z,66.66
2023-03-16T03:47:42.067Z,66.60
2023-03-16T03:50:13.531Z,66.67
2023-03-16T03:53:09.884Z,66.71
2023-03-16T03:55:54.114Z,66.74
2023-03-16T03:58:22.003Z,67.20
2023-03-16T04:00:49.386Z,67.34
2023-03-16T04:03:17.839Z,67.22
2023-03-16T04:05:46.340Z,67.00
2023-03-16T04:08:13.725Z,67.30
2023-03-16T04:10:41.268Z,67.35
2023-03-16T04:13:08.772Z,67.61
2023-03-16T04:15:38.592Z,67.57
2023-03-16T04:18:13.071Z,67.32
2023-03-16T04:20:41.663Z,67.58
2023-03-16T04:23:09.590Z,67.75
2023-03-16T04:25:38.801Z,68.06
2023-03-16T04:28:07.244Z,67.51
2023-03-16T04:30:36.729Z,67.24
2023-03-16T04:33:15.137Z,67.52
2023-03-16T04:35:43.534Z,67.36
2023-03-16T04:38:12.242Z,67.11
2023-03-16T04:40:49.477Z,67.37
2023-03-16T04:43:19.895Z,67.39
2023-03-16T04:45:48.670Z,67.80
2023-03-16T04:48:15.996Z,67.17
2023-03-16T04:50:44.816Z,67.20
2023-03-16T04:53:12.136Z,67.67
2023-03-16T04:55:39.618Z,67.67
2023-03-16T04:58:07.134Z,67.93
2023-03-16T05:00:38.428Z,67.98
2023-03-16T05:03:19.332Z,68.02
2023-03-16T05:05:47.036Z,68.22
2023-03-16T05:08:15.826Z,67.91
2023-03-16T05:10:47.857Z,68.08
2023-03-16T05:13:15.603Z,68.34
2023-03-16T05:15:44.409Z,68.03
2023-03-16T05:18:33.835Z,67.61
2023-03-16T05:21:01.247Z,68.06
2023-03-16T05:23:39.073Z,68.07
2023-03-16T05:26:07.743Z,68.24
2023-03-16T05:28:37.585Z,67.94
2023-03-16T05:31:07.276Z,68.35
2023-03-16T05:33:42.478Z,68.42
2023-03-16T05:36:14.406Z,68.03
2023-03-16T05:38:45.732Z,67.99
2023-03-16T05:41:21.556Z,67.84
2023-03-16T05:44:00.159Z,67.88
2023-03-16T05:46:35.643Z,67.36
2023-03-16T05:49:05.340Z,67.61
2023-03-16T05:51:32.771Z,67.55
2023-03-16T05:54:02.138Z,67.00
2023-03-16T05:56:35.668Z,66.72
2023-03-16T05:59:03.888Z,66.63
2023-03-16T06:01:31.423Z,66.53
2023-03-16T06:03:58.978Z,66.34
2023-03-16T06:06:29.299Z,66.39
2023-03-16T06:09:06.001Z,66.21
2023-03-16T06:11:33.571Z,66.35
2023-03-16T06:14:01.554Z,66.00
2023-03-16T06:16:29.652Z,65.63
2023-03-16T06:18:59.775Z,65.18
2023-03-16T06:21:29.751Z,64.90
2023-03-16T06:24:04.570Z,64.89
2023-03-16T06:26:32.430Z,64.80
2023-03-16T06:29:00.604Z,64.61
2023-03-16T06:31:28.155Z,64.15
2023-03-16T06:33:55.678Z,64.04
2023-03-16T06:36:23.297Z,63.61
2023-03-16T06:39:12.803Z,63.49
2023-03-16T06:44:35.849Z,56.27
2023-03-16T06:47:13.868Z,53.78
2023-03-16T06:49:47.346Z,53.37
2023-03-16T06:52:22.702Z,52.06
2023-03-16T06:54:51.431Z,49.24
2023-03-16T06:57:21.055Z,45.12
2023-03-16T06:59:56.747Z,44.39
2023-03-16T07:02:24.309Z,45.00
2023-03-16T07:15:27.536Z,39.55
2023-03-16T07:21:09.318Z,40.08
2023-03-16T07:23:46.102Z,39.40
2023-03-16T07:26:36.703Z,38.87
2023-03-16T07:31:53.932Z,37.58
2023-03-16T07:34:27.403Z,37.70
2023-03-16T07:36:58.835Z,38.16
2023-03-16T07:39:30.841Z,38.49
2023-03-16T07:42:06.228Z,37.81
2023-03-16T07:44:52.214Z,37.28
2023-03-16T07:47:25.960Z,36.82
2023-03-16T07:49:58.756Z,37.59
2023-03-16T07:52:26.533Z,37.56
2023-03-16T07:54:56.398Z,37.15
2023-03-16T07:57:24.369Z,36.57
2023-03-16T07:59:52.020Z,37.43
2023-03-16T08:02:25.252Z,36.10
2023-03-16T08:04:53.312Z,37.90
2023-03-16T08:07:20.941Z,37.68
2023-03-16T08:10:01.220Z,37.43
2023-03-16T08:12:35.434Z,37.19
2023-03-16T08:15:03.917Z,38.08
2023-03-16T08:17:32.687Z,36.91
2023-03-16T08:20:10.498Z,36.41
2023-03-16T08:22:38.117Z,36.00
2023-03-16T08:25:06.609Z,37.54
2023-03-16T08:27:34.413Z,35.52
2023-03-16T08:30:08.152Z,35.93
2023-03-16T08:32:40.085Z,35.16
2023-03-16T08:35:10.433Z,35.08
2023-03-16T08:37:39.053Z,37.28
2023-03-16T08:40:10.877Z,40.57
2023-03-16T08:42:39.894Z,42.98
2023-03-16T08:45:13.437Z,44.37
2023-03-16T08:47:43.965Z,43.72
2023-03-16T08:50:13.555Z,44.12
2023-03-16T08:52:41.014Z,45.06
2023-03-16T08:55:11.059Z,45.89
2023-03-16T08:57:48.953Z,45.79
2023-03-16T09:00:18.249Z,45.99
2023-03-16T09:02:45.791Z,44.03
2023-03-16T09:05:15.007Z,43.91
2023-03-16T09:07:48.464Z,43.99
2023-03-16T09:10:16.966Z,44.55
2023-03-16T09:12:44.356Z,45.44
2023-03-16T09:15:12.669Z,43.86
2023-03-16T09:17:42.059Z,43.36
2023-03-16T09:20:21.851Z,42.73
2023-03-16T09:22:51.015Z,40.14
2023-03-16T09:25:22.333Z,41.23
2023-03-16T09:27:49.891Z,41.21
2023-03-16T09:30:17.421Z,41.37
2023-03-16T09:32:45.936Z,41.60
2023-03-16T09:35:13.590Z,42.28
2023-03-16T09:37:45.258Z,41.32
2023-03-16T09:40:29.329Z,39.87
2023-03-16T09:43:20.822Z,40.88
2023-03-16T09:46:04.441Z,40.26
2023-03-16T09:48:33.942Z,37.92
2023-03-16T09:51:02.777Z,38.11
2023-03-16T09:53:48.620Z,38.85
2023-03-16T09:56:36.092Z,38.29
2023-03-16T09:59:10.782Z,38.23
2023-03-16T10:02:05.917Z,38.71
2023-03-16T10:04:33.714Z,37.88
2023-03-16T10:07:10.204Z,36.84
2023-03-16T10:10:03.877Z,32.88
2023-03-16T10:12:37.543Z,35.72
2023-03-16T10:15:16.155Z,37.58
2023-03-16T10:17:52.786Z,37.53
2023-03-16T10:20:22.561Z,37.20
2023-03-16T10:22:52.591Z,37.12
2023-03-16T10:25:28.345Z,36.94
2023-03-16T10:27:57.962Z,36.03
2023-03-16T10:30:33.605Z,34.24
2023-03-16T10:33:05.751Z,34.68
2023-03-16T10:35:38.502Z,35.31
2023-03-16T10:38:08.868Z,34.42
2023-03-16T10:40:40.527Z,34.08
2023-03-16T10:43:13.099Z,34.53
2023-03-16T10:45:42.751Z,35.94
2023-03-16T10:48:15.221Z,37.05
2023-03-16T10:50:43.136Z,36.12
2023-03-16T10:53:20.188Z,34.64
2023-03-16T10:55:47.677Z,34.30
2023-03-16T10:58:30.858Z,34.85
2023-03-16T11:00:59.519Z,35.03
2023-03-16T11:03:35.966Z,32.27
2023-03-16T11:06:06.214Z,32.54
2023-03-16T11:08:36.129Z,32.49
2023-03-16T11:11:28.920Z,33.48
2023-03-16T11:14:02.334Z,33.92
2023-03-16T11:17:02.399Z,33.62
2023-03-16T11:19:31.651Z,32.80
2023-03-16T11:22:22.161Z,32.21
2023-03-16T11:25:03.059Z,32.44
2023-03-16T11:28:02.028Z,33.01
2023-03-16T11:30:37.411Z,33.54
2023-03-16T11:33:09.904Z,33.75
2023-03-16T11:36:14.007Z,33.31
2023-03-16T11:39:09.333Z,33.16
2023-03-16T11:42:10.182Z,31.42
2023-03-16T11:44:38.794Z,30.44
2023-03-16T11:47:21.342Z,29.71
2023-03-16T11:49:56.047Z,29.69
2023-03-16T11:52:41.563Z,30.02
2023-03-16T11:55:30.829Z,29.72
2023-03-16T11:58:10.324Z,30.75
2023-03-16T12:00:52.731Z,30.90
2023-03-16T12:03:59.430Z,30.01
2023-03-16T12:06:39.692Z,29.38
2023-03-16T12:09:29.057Z,29.07
2023-03-16T12:12:05.333Z,28.35
2023-03-16T12:14:40.941Z,33.41
2023-03-16T12:17:13.326Z,30.77
2023-03-16T12:19:52.297Z,30.79
2023-03-16T12:22:23.813Z,28.72
2023-03-16T12:24:51.305Z,29.18
2023-03-16T12:27:31.768Z,29.65
2023-03-16T12:29:59.924Z,28.94
2023-03-16T12:32:42.531Z,29.17
2023-03-16T12:35:45.200Z,28.54
2023-03-16T12:38:21.807Z,27.78
2023-03-16T12:41:01.752Z,27.82
2023-03-16T12:43:37.759Z,27.84
2023-03-16T12:46:11.970Z,28.12
2023-03-16T12:48:47.899Z,28.70
2023-03-16T12:51:16.014Z,28.25
2023-03-16T12:53:44.539Z,27.65
2023-03-16T12:56:28.432Z,27.67
2023-03-16T12:58:57.377Z,27.50
2023-03-16T13:01:39.055Z,28.24
2023-03-16T13:04:20.379Z,28.18
2023-03-16T13:06:51.730Z,27.96
2023-03-16T13:09:25.738Z,27.17
2023-03-16T13:11:53.480Z,26.93
2023-03-16T13:14:40.729Z,27.18
2023-03-16T13:17:17.406Z,27.51
2023-03-16T13:19:46.757Z,27.93
2023-03-16T13:22:26.116Z,26.53
2023-03-16T13:24:59.916Z,27.59
2023-03-16T13:27:29.560Z,27.69
2023-03-16T13:30:02.224Z,27.09
2023-03-16T13:35:29.251Z,28.01
2023-03-16T13:38:05.751Z,28.37
2023-03-16T13:40:33.370Z,28.47
2023-03-16T13:43:00.944Z,27.49
2023-03-16T13:45:33.518Z,27.04
2023-03-16T13:48:02.073Z,27.49
2023-03-16T13:50:33.451Z,28.15
2023-03-16T13:53:05.417Z,28.15
2023-03-16T13:55:36.940Z,28.84
2023-03-16T13:58:04.481Z,29.73
2023-03-16T14:00:34.930Z,29.36
2023-03-16T14:03:11.812Z,29.06
2023-03-16T14:05:39.483Z,28.30
2023-03-16T14:08:17.231Z,27.82
2023-03-16T14:10:45.481Z,28.15
2023-03-16T14:13:28.088Z,28.03
2023-03-16T14:16:17.814Z,27.82
2023-03-16T14:18:47.508Z,27.98
2023-03-16T14:21:25.710Z,28.24
2023-03-16T14:23:55.371Z,28.20
2023-03-16T14:26:23.053Z,28.52
2023-03-16T14:29:04.279Z,28.74
2023-03-16T14:31:36.144Z,28.67
2023-03-16T14:34:05.555Z,29.16
2023-03-16T14:36:37.890Z,28.71
2023-03-16T14:39:13.090Z,28.58
2023-03-16T14:41:40.530Z,29.19
2023-03-16T14:44:17.675Z,29.12
2023-03-16T14:46:45.066Z,29.22
2023-03-16T14:49:25.156Z,29.68
2023-03-16T14:51:52.914Z,29.40
2023-03-16T14:54:24.306Z,29.62
2023-03-16T14:56:58.659Z,29.74
2023-03-16T14:59:26.176Z,30.30
2023-03-16T15:01:54.774Z,30.47
2023-03-16T15:04:30.366Z,30.36
2023-03-16T15:06:58.340Z,30.30
2023-03-16T15:09:39.303Z,30.05
2023-03-16T15:12:14.525Z,30.50
2023-03-16T15:15:00.412Z,30.76
2023-03-16T15:17:27.753Z,30.84
2023-03-16T15:19:55.059Z,31.12
2023-03-16T15:22:28.794Z,32.12
2023-03-16T15:24:56.424Z,32.09
2023-03-16T15:27:25.312Z,31.61
2023-03-16T15:29:52.678Z,31.17
2023-03-16T15:32:19.941Z,31.43
2023-03-16T15:34:47.398Z,31.35
2023-03-16T15:37:15.608Z,31.79
2023-03-16T15:39:43.935Z,32.41
2023-03-16T15:42:18.672Z,33.14
2023-03-16T15:44:47.987Z,32.24
2023-03-16T15:47:15.554Z,31.91
2023-03-16T15:49:47.923Z,32.24
2023-03-16T15:52:31.791Z,32.96
2023-03-16T15:55:04.610Z,32.85
2023-03-16T15:57:32.126Z,33.28
2023-03-16T15:59:59.512Z,33.03
2023-03-16T16:02:31.305Z,32.71
2023-03-16T16:04:59.209Z,32.47
2023-03-16T16:07:27.386Z,33.65
2023-03-16T16:09:54.818Z,32.84
2023-03-16T16:12:27.057Z,33.10
2023-03-16T16:14:56.428Z,33.41
2023-03-16T16:17:36.552Z,33.28
2023-03-16T16:20:18.308Z,33.65
2023-03-16T16:22:45.633Z,33.45
2023-03-16T16:25:13.820Z,34.26
2023-03-16T16:27:41.538Z,33.78
2023-03-16T16:30:26.673Z,33.74
2023-03-16T16:32:55.398Z,33.93
2023-03-16T16:35:27.937Z,33.53
2023-03-16T16:37:55.482Z,33.23
2023-03-16T16:40:24.166Z,33.53
2023-03-16T16:42:54.565Z,33.82
2023-03-16T16:45:23.495Z,34.43
2023-03-16T16:47:52.564Z,34.64
2023-03-16T16:50:21.736Z,34.95
2023-03-16T16:52:49.806Z,34.62
2023-03-16T16:55:17.658Z,34.95
2023-03-16T16:57:45.095Z,34.84
2023-03-16T17:00:18.482Z,34.61
2023-03-16T17:02:53.703Z,34.44
2023-03-16T17:05:24.898Z,34.35
2023-03-16T17:07:52.455Z,34.58
2023-03-16T17:10:22.239Z,34.34
2023-03-16T17:12:54.246Z,34.58
2023-03-16T17:15:24.811Z,34.60
2023-03-16T17:17:52.928Z,35.11
2023-03-16T17:20:21.504Z,35.11
2023-03-16T17:22:49.577Z,34.33
2023-03-16T17:25:17.044Z,34.00
2023-03-16T17:27:45.537Z,34.16
2023-03-16T17:30:33.244Z,34.25
2023-03-16T17:33:09.449Z,34.25
2023-03-16T17:35:37.503Z,34.32
2023-03-16T17:38:17.521Z,34.52
2023-03-16T17:40:45.126Z,34.67
2023-03-16T17:43:16.539Z,34.81
2023-03-16T17:45:44.947Z,34.75
2023-03-16T17:48:16.912Z,34.65
2023-03-16T17:50:46.260Z,34.60
2023-03-16T17:53:14.670Z,35.04
2023-03-16T17:55:42.063Z,34.93
2023-03-16T17:58:27.197Z,35.22
2023-03-16T18:00:54.883Z,36.00
2023-03-16T18:03:22.723Z,36.69
2023-03-16T18:05:50.175Z,37.22
2023-03-16T18:08:27.819Z,37.22
2023-03-16T18:10:59.628Z,37.02
2023-03-16T18:13:37.107Z,36.85
2023-03-16T18:16:05.926Z,36.78
2023-03-16T18:18:36.732Z,36.85
2023-03-16T18:21:04.512Z,36.93
2023-03-16T18:23:33.841Z,37.33
2023-03-16T18:26:03.844Z,37.84
2023-03-16T18:28:31.465Z,37.84
2023-03-16T18:30:59.363Z,38.02
2023-03-16T18:33:46.347Z,38.07
2023-03-16T18:36:16.689Z,38.85
2023-03-16T18:38:45.066Z,38.88
2023-03-16T18:41:21.060Z,38.97
2023-03-16T18:43:49.312Z,39.79
2023-03-16T18:46:33.380Z,39.58
2023-03-16T18:49:16.834Z,40.15
2023-03-16T18:51:45.995Z,40.22
2023-03-16T18:54:35.616Z,40.71
2023-03-16T18:57:04.476Z,40.44
2023-03-16T18:59:32.186Z,40.59
2023-03-16T19:01:59.542Z,41.68
2023-03-16T19:04:29.364Z,42.38
2023-03-16T19:06:56.897Z,42.72
2023-03-16T19:09:25.016Z,42.98
2023-03-16T19:11:52.728Z,42.81
2023-03-16T19:14:27.279Z,42.74
2023-03-16T19:16:54.991Z,42.80
2023-03-16T19:19:22.773Z,42.85
2023-03-16T19:21:54.590Z,43.01
2023-03-16T19:24:29.969Z,42.73
2023-03-16T19:26:57.667Z,42.78
2023-03-16T19:29:31.599Z,42.41
2023-03-16T19:31:59.213Z,41.98
2023-03-16T19:34:26.696Z,41.95
2023-03-16T19:36:54.054Z,41.92
2023-03-16T19:39:21.674Z,42.15
2023-03-16T19:41:52.511Z,41.99
2023-03-16T19:44:20.766Z,43.01
2023-03-16T19:46:48.218Z,44.56
2023-03-16T19:49:19.810Z,45.06
2023-03-16T19:51:47.926Z,44.68
2023-03-16T19:54:25.650Z,43.62
2023-03-16T19:56:53.619Z,43.84
2023-03-16T19:59:20.956Z,43.92
2023-03-16T20:01:48.331Z,43.95
2023-03-16T20:04:18.338Z,42.88
2023-03-16T20:06:46.359Z,44.25
2023-03-16T20:09:15.059Z,43.92
2023-03-16T20:11:42.414Z,43.82
2023-03-16T20:14:18.762Z,43.71
2023-03-16T20:16:48.237Z,44.14
2023-03-16T20:19:15.545Z,45.62
2023-03-16T20:21:43.040Z,46.32
2023-03-16T20:24:17.399Z,46.21
2023-03-16T20:26:45.237Z,45.38
2023-03-16T20:29:21.612Z,45.65
2023-03-16T20:31:49.063Z,45.64
2023-03-16T20:34:22.492Z,46.65
2023-03-16T20:36:49.842Z,48.06
2023-03-16T20:39:17.146Z,48.13
2023-03-16T20:41:44.476Z,47.19
2023-03-16T20:44:16.810Z,46.81
2023-03-16T20:46:44.969Z,47.13
2023-03-16T20:49:25.475Z,46.61
2023-03-16T20:51:53.347Z,46.79
2023-03-16T20:54:20.678Z,47.11
2023-03-16T20:56:48.278Z,47.32
2023-03-16T20:59:22.965Z,47.71
2023-03-16T21:01:51.901Z,47.38
2023-03-16T21:04:24.127Z,47.93
2023-03-16T21:06:51.548Z,47.75
2023-03-16T21:09:19.336Z,47.85
2023-03-16T21:11:46.797Z,48.07
2023-03-16T21:14:18.641Z,47.84
2023-03-16T21:16:45.985Z,47.56
2023-03-16T21:19:18.047Z,47.29
2023-03-16T21:21:46.709Z,47.74
2023-03-16T21:24:13.973Z,48.34
2023-03-16T21:26:41.988Z,48.06
2023-03-16T21:29:21.367Z,48.62
2023-03-16T21:31:48.908Z,48.67
2023-03-16T21:34:27.179Z,48.72
2023-03-16T21:36:54.658Z,49.08
2023-03-16T21:39:23.844Z,49.68
2023-03-16T21:41:51.293Z,50.48
2023-03-16T21:44:18.609Z,51.30
2023-03-16T21:46:47.434Z,51.19
2023-03-16T21:49:14.745Z,50.76
2023-03-16T21:51:43.362Z,49.95
2023-03-16T21:54:14.736Z,49.59
2023-03-16T21:56:42.589Z,49.34
2023-03-16T21:59:10.175Z,49.24
2023-03-16T22:01:44.923Z,49.65
2023-03-16T22:04:18.339Z,49.87
2023-03-16T22:06:46.112Z,50.30
2023-03-16T22:09:18.662Z,49.70
2023-03-16T22:11:46.266Z,50.55
2023-03-16T22:14:13.637Z,51.06
2023-03-16T22:16:41.052Z,51.57
2023-03-16T22:19:11.712Z,51.46
2023-03-16T22:21:40.218Z,51.19
2023-03-16T22:24:15.912Z,51.44
2023-03-16T22:26:43.262Z,51.38
2023-03-16T22:29:20.662Z,50.61
2023-03-16T22:31:48.158Z,50.40
2023-03-16T22:34:30.096Z,50.31
2023-03-16T22:36:57.697Z,51.68
2023-03-16T22:39:25.137Z,52.21
2023-03-16T22:41:52.513Z,51.90
2023-03-16T22:44:23.107Z,50.35
2023-03-16T22:46:50.912Z,50.27
2023-03-16T22:49:23.480Z,50.43
2023-03-16T22:51:51.115Z,50.25
2023-03-16T22:54:18.774Z,50.42
2023-03-16T22:56:46.113Z,50.21
2023-03-16T22:59:15.088Z,50.51
2023-03-16T23:01:46.623Z,49.79
2023-03-16T23:04:20.033Z,49.65
2023-03-16T23:06:51.660Z,50.21
2023-03-16T23:09:20.497Z,50.31
2023-03-16T23:11:49.646Z,50.22
2023-03-16T23:14:25.291Z,50.27
2023-03-16T23:16:52.811Z,50.63
2023-03-16T23:19:34.242Z,50.20
2023-03-16T23:22:03.603Z,50.47
2023-03-16T23:24:31.844Z,51.09
2023-03-16T23:26:59.194Z,51.72
2023-03-16T23:29:26.773Z,51.60
2023-03-16T23:31:54.625Z,51.68
2023-03-16T23:34:23.776Z,51.22
2023-03-16T23:36:51.461Z,51.04
2023-03-16T23:39:19.153Z,50.95
2023-03-16T23:41:47.659Z,50.98
2023-03-16T23:44:22.476Z,51.80
2023-03-16T23:46:50.952Z,52.63
2023-03-16T23:49:26.094Z,52.69
2023-03-16T23:51:53.469Z,52.00
2023-03-16T23:54:25.479Z,51.35
2023-03-16T23:56:52.879Z,51.82
2023-03-16T23:59:21.051Z,52.03
